createdAt,value
2022-10-18T00:00:35.959Z,13.00
2022-10-18T00:02:07.848Z,13.00
2022-10-18T00:03:40.828Z,12.90
2022-10-18T00:05:13.558Z,12.90
2022-10-18T00:06:46.411Z,12.90
2022-10-18T00:08:21.034Z,12.90
2022-10-18T00:09:53.761Z,12.90
2022-10-18T00:11:26.523Z,12.90
2022-10-18T00:12:59.234Z,12.90
2022-10-18T00:14:32.004Z,12.90
2022-10-18T00:16:05.126Z,12.90
2022-10-18T00:17:38.274Z,12.90
2022-10-18T00:19:11.000Z,12.90
2022-10-18T00:20:42.705Z,12.80
2022-10-18T00:22:15.342Z,12.80
2022-10-18T00:23:50.287Z,12.80
2022-10-18T00:25:23.136Z,12.70
2022-10-18T00:26:54.862Z,12.70
2022-10-18T00:28:27.694Z,12.70
2022-10-18T00:30:00.568Z,12.70
2022-10-18T00:31:33.201Z,12.70
2022-10-18T00:33:05.976Z,12.70
2022-10-18T00:34:38.239Z,12.70
2022-10-18T00:36:11.044Z,12.70
2022-10-18T00:37:43.866Z,12.70
2022-10-18T00:39:18.873Z,12.70
2022-10-18T00:40:51.622Z,12.60
2022-10-18T00:42:25.133Z,12.60
2022-10-18T00:43:59.733Z,12.60
2022-10-18T00:45:32.524Z,12.60
2022-10-18T00:47:08.446Z,12.60
2022-10-18T00:48:41.288Z,12.70
2022-10-18T00:50:14.409Z,12.70
2022-10-18T00:51:47.370Z,12.70
2022-10-18T00:53:21.784Z,12.70
2022-10-18T00:54:55.395Z,12.70
2022-10-18T00:56:28.169Z,12.70
2022-10-18T00:58:00.275Z,12.70
2022-10-18T00:59:33.598Z,12.70
2022-10-18T01:01:06.490Z,12.70
2022-10-18T01:02:40.425Z,12.60
2022-10-18T01:04:13.341Z,12.60
2022-10-18T01:05:47.399Z,12.60
2022-10-18T01:07:24.043Z,12.70
2022-10-18T01:09:05.385Z,12.70
2022-10-18T01:10:43.421Z,12.70
2022-10-18T01:12:23.172Z,12.60
2022-10-18T01:14:00.434Z,12.60
2022-10-18T01:15:35.314Z,12.60
2022-10-18T01:17:11.156Z,12.50
2022-10-18T01:18:47.386Z,12.50
2022-10-18T01:20:31.247Z,12.50
2022-10-18T01:22:06.775Z,12.50
2022-10-18T01:23:58.455Z,12.60
2022-10-18T01:25:37.609Z,12.50
2022-10-18T01:27:21.389Z,12.50
2022-10-18T01:29:00.384Z,12.50
2022-10-18T01:30:42.536Z,12.40
2022-10-18T01:32:16.057Z,12.50
2022-10-18T01:33:51.115Z,12.40
2022-10-18T01:35:27.613Z,12.40
2022-10-18T01:37:01.808Z,12.40
2022-10-18T01:38:34.393Z,12.40
2022-10-18T01:40:08.873Z,12.40
2022-10-18T01:41:42.780Z,12.40
2022-10-18T01:43:15.244Z,12.40
2022-10-18T01:44:48.823Z,12.40
2022-10-18T01:46:24.205Z,12.50
2022-10-18T01:47:57.434Z,12.40
2022-10-18T01:49:30.177Z,12.40
2022-10-18T01:51:02.085Z,12.40
2022-10-18T01:52:34.962Z,12.40
2022-10-18T01:54:07.827Z,12.40
2022-10-18T01:55:43.048Z,12.30
2022-10-18T01:57:21.004Z,12.30
2022-10-18T01:59:03.773Z,12.30
2022-10-18T02:00:39.108Z,12.30
2022-10-18T02:02:18.838Z,12.30
2022-10-18T02:03:54.750Z,12.30
2022-10-18T02:05:30.301Z,12.20
2022-10-18T02:07:06.953Z,12.20
2022-10-18T02:08:43.857Z,12.10
2022-10-18T02:10:19.762Z,12.20
2022-10-18T02:11:54.919Z,12.20
2022-10-18T02:13:30.330Z,12.20
2022-10-18T02:15:05.027Z,12.20
2022-10-18T02:16:40.320Z,12.10
2022-10-18T02:18:16.477Z,12.20
2022-10-18T02:19:51.446Z,12.10
2022-10-18T02:21:26.641Z,12.10
2022-10-18T02:23:00.564Z,12.10
2022-10-18T02:24:35.588Z,12.10
2022-10-18T02:26:07.411Z,12.10
2022-10-18T02:27:40.564Z,12.10
2022-10-18T02:29:12.528Z,12.10
2022-10-18T02:30:48.529Z,12.00
2022-10-18T02:32:21.687Z,12.10
2022-10-18T02:33:58.001Z,12.10
2022-10-18T02:35:32.159Z,12.00
2022-10-18T02:37:04.668Z,12.10
2022-10-18T02:38:37.691Z,12.00
2022-10-18T02:40:11.428Z,12.00
2022-10-18T02:41:44.518Z,12.00
2022-10-18T02:43:17.302Z,12.00
2022-10-18T02:44:50.178Z,12.00
2022-10-18T02:46:23.412Z,12.10
2022-10-18T02:47:56.188Z,12.00
2022-10-18T02:49:30.395Z,12.10
2022-10-18T02:51:03.080Z,12.10
2022-10-18T02:52:35.822Z,12.10
2022-10-18T02:54:08.896Z,12.00
2022-10-18T02:55:41.715Z,12.10
2022-10-18T02:57:14.423Z,12.00
2022-10-18T02:58:47.307Z,12.00
2022-10-18T03:00:20.163Z,12.00
2022-10-18T03:01:51.898Z,12.00
2022-10-18T03:03:24.700Z,12.00
2022-10-18T03:04:59.036Z,12.00
2022-10-18T03:06:32.092Z,12.00
2022-10-18T03:08:05.141Z,12.00
2022-10-18T03:09:36.964Z,12.00
2022-10-18T03:11:09.813Z,12.00
2022-10-18T03:12:42.596Z,12.00
2022-10-18T03:14:14.461Z,12.00
2022-10-18T03:15:47.536Z,12.00
2022-10-18T03:17:20.695Z,11.90
2022-10-18T03:18:52.861Z,11.90
2022-10-18T03:20:27.100Z,11.90
2022-10-18T03:21:59.854Z,12.00
2022-10-18T03:23:32.713Z,11.90
2022-10-18T03:25:05.766Z,11.90
2022-10-18T03:26:37.499Z,12.00
2022-10-18T03:28:10.225Z,12.00
2022-10-18T03:29:42.994Z,11.90
2022-10-18T03:31:15.771Z,12.00
2022-10-18T03:32:48.572Z,11.90
2022-10-18T03:34:21.343Z,12.00
2022-10-18T03:35:54.438Z,12.00
2022-10-18T03:37:27.211Z,12.00
2022-10-18T03:39:00.008Z,12.00
2022-10-18T03:40:32.783Z,12.00
2022-10-18T03:42:04.561Z,11.90
2022-10-18T03:43:37.356Z,11.90
2022-10-18T03:45:10.504Z,12.00
2022-10-18T03:46:42.295Z,12.00
2022-10-18T03:48:15.031Z,12.00
2022-10-18T03:49:49.160Z,12.00
2022-10-18T03:51:24.035Z,12.00
2022-10-18T03:52:56.808Z,12.00
2022-10-18T03:54:29.548Z,12.00
2022-10-18T03:56:02.331Z,12.00
2022-10-18T03:57:35.132Z,12.00
2022-10-18T03:59:08.002Z,12.00
2022-10-18T04:00:40.759Z,12.00
2022-10-18T04:02:12.634Z,12.00
2022-10-18T04:03:45.500Z,12.00
2022-10-18T04:05:18.533Z,12.00
2022-10-18T04:06:51.764Z,12.00
2022-10-18T04:08:24.444Z,12.10
2022-10-18T04:09:57.245Z,12.10
2022-10-18T04:11:30.017Z,12.20
2022-10-18T04:13:02.873Z,12.10
2022-10-18T04:14:35.567Z,12.20
2022-10-18T04:16:08.415Z,12.20
2022-10-18T04:17:41.097Z,12.20
2022-10-18T04:19:14.101Z,12.30
2022-10-18T04:20:46.875Z,12.30
2022-10-18T04:22:21.070Z,12.40
2022-10-18T04:23:53.985Z,12.40
2022-10-18T04:25:26.708Z,12.40
2022-10-18T04:26:59.411Z,12.50
2022-10-18T04:28:37.167Z,12.50
2022-10-18T04:30:10.660Z,12.50
2022-10-18T04:31:43.389Z,12.50
2022-10-18T04:33:16.104Z,12.60
2022-10-18T04:34:48.900Z,12.50
2022-10-18T04:36:21.656Z,12.60
2022-10-18T04:37:55.795Z,12.60
2022-10-18T04:39:28.544Z,12.60
2022-10-18T04:41:00.276Z,12.60
2022-10-18T04:42:33.088Z,12.60
2022-10-18T04:44:05.918Z,12.60
2022-10-18T04:45:38.674Z,12.60
2022-10-18T04:47:11.505Z,12.70
2022-10-18T04:48:44.320Z,12.70
2022-10-18T04:50:17.248Z,12.70
2022-10-18T04:51:50.019Z,12.70
2022-10-18T04:53:24.218Z,12.70
2022-10-18T04:54:56.937Z,12.70
2022-10-18T04:56:29.697Z,12.70
2022-10-18T04:58:02.439Z,12.70
2022-10-18T04:59:34.214Z,12.70
2022-10-18T05:01:07.496Z,12.70
2022-10-18T05:02:40.532Z,12.70
2022-10-18T05:04:13.488Z,12.70
2022-10-18T05:06:03.081Z,12.70
2022-10-18T05:07:36.246Z,12.70
2022-10-18T05:09:10.616Z,12.80
2022-10-18T05:10:43.333Z,12.80
2022-10-18T05:12:16.122Z,12.80
2022-10-18T05:13:50.915Z,12.80
2022-10-18T05:15:24.078Z,12.80
2022-10-18T05:16:56.813Z,12.80
2022-10-18T05:18:29.513Z,12.80
2022-10-18T05:20:04.293Z,12.80
2022-10-18T05:21:37.063Z,12.80
2022-10-18T05:23:10.719Z,12.80
2022-10-18T05:24:45.088Z,12.80
2022-10-18T05:26:17.963Z,12.80
2022-10-18T05:27:50.846Z,12.80
2022-10-18T05:29:23.665Z,12.80
2022-10-18T05:30:56.480Z,12.80
2022-10-18T05:32:29.346Z,12.80
2022-10-18T05:34:01.888Z,12.90
2022-10-18T05:35:34.823Z,12.90
2022-10-18T05:37:08.053Z,12.90
2022-10-18T05:38:42.861Z,12.90
2022-10-18T05:40:17.260Z,12.90
2022-10-18T05:41:50.079Z,13.00
2022-10-18T05:43:22.778Z,13.00
2022-10-18T05:44:55.688Z,13.00
2022-10-18T05:46:28.409Z,13.10
2022-10-18T05:48:01.153Z,13.10
2022-10-18T05:49:33.914Z,13.10
2022-10-18T05:51:05.871Z,13.10
2022-10-18T05:52:38.555Z,13.10
2022-10-18T05:54:12.254Z,13.10
2022-10-18T05:55:45.316Z,13.10
2022-10-18T05:57:18.050Z,13.10
2022-10-18T05:58:52.828Z,13.10
2022-10-18T06:00:25.681Z,13.10
2022-10-18T06:01:58.507Z,13.10
2022-10-18T06:03:31.625Z,13.10
2022-10-18T06:05:04.682Z,13.20
2022-10-18T06:06:38.196Z,13.20
2022-10-18T06:08:10.377Z,13.20
2022-10-18T06:09:43.209Z,13.30
2022-10-18T06:11:20.068Z,13.30
2022-10-18T06:12:52.929Z,13.30
2022-10-18T06:14:25.731Z,13.40
2022-10-18T06:15:58.459Z,13.40
2022-10-18T06:17:32.699Z,13.40
2022-10-18T06:19:05.542Z,13.50
2022-10-18T06:20:38.234Z,13.50
2022-10-18T06:22:10.953Z,13.60
2022-10-18T06:23:44.022Z,13.60
2022-10-18T06:25:16.759Z,13.70
2022-10-18T06:26:50.867Z,13.70
2022-10-18T06:28:23.634Z,13.80
2022-10-18T06:29:56.369Z,13.80
2022-10-18T06:31:29.115Z,13.80
2022-10-18T06:33:05.604Z,13.90
2022-10-18T06:34:38.358Z,13.90
2022-10-18T06:36:11.969Z,13.90
2022-10-18T06:37:44.869Z,13.90
2022-10-18T06:39:17.738Z,13.90
2022-10-18T06:40:50.440Z,13.90
2022-10-18T06:42:24.607Z,13.90
2022-10-18T06:43:58.625Z,14.00
2022-10-18T06:45:31.419Z,14.00
2022-10-18T06:47:04.196Z,14.10
2022-10-18T06:48:37.257Z,14.10
2022-10-18T06:50:11.495Z,14.20
2022-10-18T06:51:44.587Z,14.20
2022-10-18T06:53:16.372Z,14.20
2022-10-18T06:54:49.101Z,14.20
2022-10-18T06:56:21.831Z,14.20
2022-10-18T06:57:55.918Z,14.20
2022-10-18T06:59:31.100Z,14.20
2022-10-18T07:01:06.599Z,14.20
2022-10-18T07:02:41.528Z,14.30
2022-10-18T07:04:14.275Z,14.30
2022-10-18T07:05:46.980Z,14.40
2022-10-18T07:07:21.116Z,14.40
2022-10-18T07:08:54.193Z,14.40
2022-10-18T07:10:26.972Z,14.50
2022-10-18T07:11:59.650Z,14.50
2022-10-18T07:13:38.975Z,14.50
2022-10-18T07:15:12.490Z,14.50
2022-10-18T07:16:45.315Z,14.50
2022-10-18T07:18:17.505Z,14.50
2022-10-18T07:19:50.224Z,14.50
2022-10-18T07:21:24.082Z,14.50
2022-10-18T07:22:56.929Z,14.50
2022-10-18T07:24:29.826Z,14.50
2022-10-18T07:26:03.185Z,14.50
2022-10-18T07:27:37.425Z,14.50
2022-10-18T07:29:13.102Z,14.60
2022-10-18T07:30:45.945Z,14.60
2022-10-18T07:32:18.757Z,14.70
2022-10-18T07:33:51.657Z,14.70
2022-10-18T07:35:24.434Z,14.80
2022-10-18T07:36:57.187Z,14.80
2022-10-18T07:38:30.040Z,14.90
2022-10-18T07:40:02.834Z,15.00
2022-10-18T07:41:35.910Z,15.00
2022-10-18T07:43:12.308Z,15.10
2022-10-18T07:44:46.831Z,15.20
2022-10-18T07:46:20.044Z,15.20
2022-10-18T07:47:55.178Z,15.20
2022-10-18T07:49:27.958Z,15.20
2022-10-18T07:51:01.380Z,15.20
2022-10-18T07:52:34.322Z,15.30
2022-10-18T07:54:07.128Z,15.20
2022-10-18T07:55:39.877Z,15.30
2022-10-18T07:57:12.677Z,15.30
2022-10-18T07:58:46.124Z,15.40
2022-10-18T08:00:20.313Z,15.40
2022-10-18T08:01:53.126Z,15.40
2022-10-18T08:03:26.234Z,15.50
2022-10-18T08:04:58.950Z,15.50
2022-10-18T08:06:31.756Z,15.50
2022-10-18T08:08:07.884Z,15.50
2022-10-18T08:09:41.041Z,15.60
2022-10-18T08:11:15.787Z,15.60
2022-10-18T08:12:48.698Z,15.60
2022-10-18T08:14:21.470Z,15.70
2022-10-18T08:16:00.064Z,15.70
2022-10-18T08:17:33.166Z,15.70
2022-10-18T08:19:06.168Z,15.70
2022-10-18T08:20:38.906Z,15.80
2022-10-18T08:22:11.627Z,15.90
2022-10-18T08:23:44.634Z,15.90
2022-10-18T08:25:17.468Z,16.00
2022-10-18T08:26:50.340Z,16.00
2022-10-18T08:28:23.586Z,16.10
2022-10-18T08:29:56.355Z,16.20
2022-10-18T08:31:30.536Z,16.20
2022-10-18T08:33:03.332Z,16.20
2022-10-18T08:36:17.207Z,16.40
2022-10-18T08:37:50.129Z,16.40
2022-10-18T08:39:22.886Z,16.50
2022-10-18T08:40:55.868Z,16.60
2022-10-18T08:42:35.327Z,16.60
2022-10-18T08:44:13.018Z,16.70
2022-10-18T08:45:45.837Z,16.80
2022-10-18T08:47:21.713Z,16.80
2022-10-18T08:48:56.370Z,16.90
2022-10-18T08:50:34.819Z,16.90
2022-10-18T08:52:15.913Z,17.00
2022-10-18T08:53:52.578Z,17.10
2022-10-18T08:55:27.504Z,17.10
2022-10-18T08:57:01.341Z,17.20
2022-10-18T08:58:34.608Z,17.30
2022-10-18T09:00:15.866Z,17.30
2022-10-18T09:01:56.593Z,17.40
2022-10-18T09:03:39.450Z,17.50
2022-10-18T09:05:18.492Z,17.60
2022-10-18T09:06:56.694Z,17.80
2022-10-18T09:08:39.947Z,18.00
2022-10-18T09:10:20.407Z,18.20
2022-10-18T09:12:01.959Z,18.30
2022-10-18T09:13:46.963Z,18.40
2022-10-18T09:15:23.330Z,18.50
2022-10-18T09:17:00.161Z,18.50
2022-10-18T09:18:44.354Z,18.60
2022-10-18T09:20:23.273Z,18.70
2022-10-18T09:21:59.245Z,18.80
2022-10-18T09:23:39.311Z,19.00
2022-10-18T09:25:18.030Z,19.20
2022-10-18T09:26:55.751Z,19.50
2022-10-18T09:28:32.842Z,19.60
2022-10-18T09:30:11.519Z,19.80
2022-10-18T09:31:48.590Z,20.00
2022-10-18T09:33:27.122Z,20.20
2022-10-18T09:35:06.160Z,20.30
2022-10-18T09:36:39.290Z,20.40
2022-10-18T09:38:14.204Z,20.50
2022-10-18T09:39:47.876Z,20.60
2022-10-18T09:41:24.007Z,20.70
2022-10-18T09:42:59.391Z,20.80
2022-10-18T09:44:34.624Z,20.90
2022-10-18T09:46:08.000Z,21.00
2022-10-18T09:47:44.978Z,21.10
2022-10-18T09:49:20.100Z,21.10
2022-10-18T09:50:57.185Z,21.20
2022-10-18T09:52:36.625Z,21.30
2022-10-18T09:54:18.526Z,21.40
2022-10-18T09:55:56.258Z,21.50
2022-10-18T09:57:32.491Z,21.60
2022-10-18T09:59:05.505Z,21.60
2022-10-18T10:00:42.603Z,21.70
2022-10-18T10:02:16.441Z,21.80
2022-10-18T10:03:49.464Z,21.90
2022-10-18T10:05:22.181Z,22.10
2022-10-18T10:07:01.176Z,22.30
2022-10-18T10:08:35.255Z,22.40
2022-10-18T10:10:09.470Z,22.40
2022-10-18T10:11:46.768Z,22.40
2022-10-18T10:13:23.030Z,22.10
2022-10-18T10:14:55.952Z,22.10
2022-10-18T10:16:29.116Z,22.20
2022-10-18T10:18:02.984Z,22.30
2022-10-18T10:19:36.973Z,22.30
2022-10-18T10:21:14.582Z,22.20
2022-10-18T10:22:49.292Z,22.10
2022-10-18T10:24:28.936Z,22.10
2022-10-18T10:26:05.922Z,22.10
2022-10-18T10:27:43.422Z,22.00
2022-10-18T10:29:44.391Z,22.00
2022-10-18T10:31:19.292Z,22.00
2022-10-18T10:32:52.790Z,21.90
2022-10-18T10:34:30.005Z,22.00
2022-10-18T10:36:03.830Z,21.90
2022-10-18T10:37:40.516Z,21.90
2022-10-18T10:39:18.493Z,21.90
2022-10-18T10:40:51.720Z,21.80
2022-10-18T10:42:24.496Z,21.80
2022-10-18T10:43:57.546Z,21.60
2022-10-18T10:45:30.708Z,21.60
2022-10-18T10:47:03.712Z,21.60
2022-10-18T10:48:41.901Z,21.60
2022-10-18T10:50:15.201Z,21.60
2022-10-18T10:52:02.518Z,21.50
2022-10-18T10:53:52.284Z,21.40
2022-10-18T10:55:35.160Z,21.20
2022-10-18T10:57:17.815Z,21.10
2022-10-18T10:58:50.942Z,21.10
2022-10-18T11:00:36.575Z,21.20
2022-10-18T11:02:21.341Z,21.10
2022-10-18T11:03:55.148Z,21.10
2022-10-18T11:05:29.243Z,21.00
2022-10-18T11:07:05.747Z,21.00
2022-10-18T11:08:41.358Z,20.80
2022-10-18T11:10:15.917Z,20.80
2022-10-18T11:11:56.903Z,20.70
2022-10-18T11:13:35.789Z,20.60
2022-10-18T11:15:15.264Z,20.50
2022-10-18T11:16:51.201Z,20.30
2022-10-18T11:18:28.652Z,20.30
2022-10-18T11:20:09.983Z,20.30
2022-10-18T11:21:43.396Z,20.30
2022-10-18T11:23:17.465Z,20.30
2022-10-18T11:24:50.216Z,20.20
2022-10-18T11:26:33.034Z,20.10
2022-10-18T11:28:10.395Z,20.00
2022-10-18T11:29:46.604Z,19.90
2022-10-18T11:31:21.895Z,19.90
2022-10-18T11:32:59.512Z,19.90
2022-10-18T11:34:40.079Z,19.80
2022-10-18T11:36:17.014Z,19.80
2022-10-18T11:37:55.531Z,19.70
2022-10-18T11:39:32.699Z,19.70
2022-10-18T11:41:11.730Z,19.60
2022-10-18T11:42:48.781Z,19.60
2022-10-18T11:44:28.161Z,19.50
2022-10-18T11:46:03.302Z,19.40
2022-10-18T11:47:40.208Z,19.30
2022-10-18T11:49:19.955Z,19.20
2022-10-18T11:50:55.801Z,19.00
2022-10-18T11:52:30.921Z,18.90
2022-10-18T11:54:10.583Z,18.80
2022-10-18T11:55:49.982Z,18.80
2022-10-18T11:57:32.215Z,18.80
2022-10-18T11:59:12.726Z,18.90
2022-10-18T12:00:49.811Z,19.00
2022-10-18T12:02:34.772Z,19.10
2022-10-18T12:04:10.069Z,19.30
2022-10-18T12:05:44.609Z,19.40
2022-10-18T12:07:21.174Z,19.50
2022-10-18T12:09:00.575Z,19.50
2022-10-18T12:10:45.981Z,19.60
2022-10-18T12:12:29.279Z,19.50
2022-10-18T12:14:05.860Z,19.50
2022-10-18T12:15:40.110Z,19.60
2022-10-18T12:17:41.639Z,19.50
2022-10-18T12:19:15.637Z,19.50
2022-10-18T12:20:49.491Z,19.50
2022-10-18T12:22:23.717Z,19.40
2022-10-18T12:23:58.485Z,19.40
2022-10-18T12:25:35.124Z,19.30
2022-10-18T12:27:10.476Z,19.30
2022-10-18T12:28:48.343Z,19.40
2022-10-18T12:30:25.513Z,19.60
2022-10-18T12:32:00.328Z,19.80
2022-10-18T12:33:37.120Z,20.00
2022-10-18T12:35:13.667Z,20.20
2022-10-18T12:36:55.042Z,20.40
2022-10-18T12:38:30.782Z,20.50
2022-10-18T12:40:11.093Z,20.70
2022-10-18T12:41:48.147Z,20.70
2022-10-18T12:43:23.604Z,20.70
2022-10-18T12:45:03.972Z,20.60
2022-10-18T12:46:46.747Z,20.50
2022-10-18T12:48:38.657Z,20.50
2022-10-18T12:50:24.119Z,20.40
2022-10-18T12:51:58.720Z,20.30
2022-10-18T12:53:32.436Z,20.20
2022-10-18T12:55:08.289Z,20.20
2022-10-18T12:56:42.129Z,20.20
2022-10-18T12:58:31.172Z,20.10
2022-10-18T13:00:04.033Z,20.00
2022-10-18T13:02:07.720Z,19.90
2022-10-18T13:03:55.396Z,19.80
2022-10-18T13:05:56.563Z,19.70
2022-10-18T13:07:40.817Z,19.60
2022-10-18T13:09:21.639Z,19.60
2022-10-18T13:11:15.153Z,19.40
2022-10-18T13:12:58.091Z,19.40
2022-10-18T13:14:48.231Z,19.40
2022-10-18T13:16:37.036Z,19.40
2022-10-18T13:18:15.848Z,19.50
2022-10-18T13:20:20.566Z,19.50
2022-10-18T13:21:54.880Z,19.60
2022-10-18T13:23:37.047Z,19.70
2022-10-18T13:25:18.864Z,19.80
2022-10-18T13:27:18.089Z,19.80
2022-10-18T13:28:58.121Z,19.80
2022-10-18T13:30:40.793Z,19.80
2022-10-18T13:32:18.387Z,19.70
2022-10-18T13:33:51.560Z,19.70
2022-10-18T13:35:57.691Z,19.60
2022-10-18T13:37:32.174Z,19.60
2022-10-18T13:39:06.547Z,19.50
2022-10-18T13:40:39.809Z,19.40
2022-10-18T13:42:27.647Z,19.30
2022-10-18T13:44:21.288Z,19.30
2022-10-18T13:45:55.557Z,19.30
2022-10-18T13:47:35.226Z,19.20
2022-10-18T13:49:20.057Z,19.20
2022-10-18T13:50:52.895Z,19.10
2022-10-18T13:52:29.276Z,19.10
2022-10-18T13:54:07.799Z,19.10
2022-10-18T13:55:46.552Z,19.10
2022-10-18T13:57:26.203Z,19.10
2022-10-18T13:59:14.759Z,18.90
2022-10-18T14:01:01.343Z,18.90
2022-10-18T14:03:04.173Z,18.90
2022-10-18T14:04:43.811Z,18.80
2022-10-18T14:06:17.451Z,18.90
2022-10-18T14:07:51.427Z,18.90
2022-10-18T14:11:24.850Z,18.90
2022-10-18T14:12:59.381Z,18.90
2022-10-18T14:14:34.931Z,18.90
2022-10-18T14:16:11.502Z,19.00
2022-10-18T14:17:46.154Z,19.10
2022-10-18T14:19:21.913Z,19.10
2022-10-18T14:21:12.716Z,19.10
2022-10-18T14:22:49.435Z,19.10
2022-10-18T14:24:23.291Z,19.10
2022-10-18T14:26:07.036Z,19.10
2022-10-18T14:27:39.920Z,19.10
2022-10-18T14:29:17.700Z,19.00
2022-10-18T14:30:54.580Z,19.00
2022-10-18T14:32:29.397Z,19.00
2022-10-18T14:34:02.322Z,19.10
2022-10-18T14:35:35.964Z,19.10
2022-10-18T14:37:14.933Z,19.10
2022-10-18T14:38:49.886Z,19.10
2022-10-18T14:40:30.219Z,19.20
2022-10-18T14:42:04.673Z,19.20
2022-10-18T14:43:37.593Z,19.20
2022-10-18T14:45:18.666Z,19.30
2022-10-18T14:46:52.303Z,19.40
2022-10-18T14:48:25.568Z,19.40
2022-10-18T14:49:58.801Z,19.40
2022-10-18T14:51:35.345Z,19.40
2022-10-18T14:53:08.299Z,19.40
2022-10-18T14:54:41.286Z,19.40
2022-10-18T14:56:22.620Z,19.30
2022-10-18T14:57:57.084Z,19.30
2022-10-18T14:59:31.719Z,19.40
2022-10-18T15:01:05.079Z,19.40
2022-10-18T15:02:39.401Z,19.40
2022-10-18T15:04:12.809Z,19.30
2022-10-18T15:05:56.571Z,19.20
2022-10-18T15:07:30.560Z,19.20
2022-10-18T15:09:05.367Z,19.10
2022-10-18T15:10:38.790Z,19.10
2022-10-18T15:12:13.231Z,19.00
2022-10-18T15:13:50.572Z,19.00
2022-10-18T15:15:26.570Z,18.90
2022-10-18T15:17:01.267Z,18.90
2022-10-18T15:18:34.174Z,18.80
2022-10-18T15:20:19.752Z,18.80
2022-10-18T15:22:07.938Z,18.80
2022-10-18T15:23:48.135Z,18.80
2022-10-18T15:25:26.759Z,18.70
2022-10-18T15:27:02.239Z,18.70
2022-10-18T15:28:36.882Z,18.70
2022-10-18T15:30:15.837Z,18.60
2022-10-18T15:31:49.279Z,18.60
2022-10-18T15:33:23.283Z,18.60
2022-10-18T15:34:56.674Z,18.60
2022-10-18T15:36:31.255Z,18.60
2022-10-18T15:38:15.641Z,18.60
2022-10-18T15:39:48.356Z,18.50
2022-10-18T15:41:41.249Z,18.50
2022-10-18T15:43:33.407Z,18.40
2022-10-18T15:45:21.000Z,18.40
2022-10-18T15:46:56.087Z,18.40
2022-10-18T15:48:31.409Z,18.30
2022-10-18T15:50:04.367Z,18.30
2022-10-18T15:51:47.750Z,18.30
2022-10-18T15:53:25.508Z,18.30
2022-10-18T15:54:58.721Z,18.20
2022-10-18T15:56:32.622Z,18.20
2022-10-18T15:58:04.682Z,18.20
2022-10-18T15:59:41.115Z,18.20
2022-10-18T16:01:17.686Z,18.10
2022-10-18T16:02:51.790Z,18.10
2022-10-18T16:04:25.443Z,18.00
2022-10-18T16:05:59.797Z,18.00
2022-10-18T16:07:32.732Z,18.00
2022-10-18T16:09:05.703Z,18.00
2022-10-18T16:10:38.589Z,18.00
2022-10-18T16:12:11.359Z,18.00
2022-10-18T16:13:44.248Z,18.00
2022-10-18T16:15:17.067Z,18.00
2022-10-18T16:16:52.069Z,18.00
2022-10-18T16:18:26.501Z,17.90
2022-10-18T16:19:59.334Z,17.90
2022-10-18T16:21:33.019Z,17.80
2022-10-18T16:23:10.026Z,17.80
2022-10-18T16:24:42.942Z,17.80
2022-10-18T16:26:17.395Z,17.70
2022-10-18T16:27:50.239Z,17.70
2022-10-18T16:29:26.241Z,17.70
2022-10-18T16:31:00.038Z,17.70
2022-10-18T16:32:33.031Z,17.70
2022-10-18T16:34:10.744Z,17.60
2022-10-18T16:35:42.563Z,17.60
2022-10-18T16:37:15.643Z,17.60
2022-10-18T16:38:49.020Z,17.50
2022-10-18T16:40:23.493Z,17.50
2022-10-18T16:41:56.231Z,17.50
2022-10-18T16:43:29.000Z,17.40
2022-10-18T16:45:01.895Z,17.50
2022-10-18T16:46:35.058Z,17.40
2022-10-18T16:48:07.712Z,17.40
2022-10-18T16:49:41.764Z,17.40
2022-10-18T16:51:14.454Z,17.40
2022-10-18T16:52:47.266Z,17.40
2022-10-18T16:54:19.986Z,17.40
2022-10-18T16:55:54.091Z,17.40
2022-10-18T16:57:26.920Z,17.30
2022-10-18T16:59:00.583Z,17.40
2022-10-18T17:00:33.515Z,17.30
2022-10-18T17:02:09.244Z,17.30
2022-10-18T17:03:42.392Z,17.30
2022-10-18T17:05:16.695Z,17.20
2022-10-18T17:06:49.945Z,17.20
2022-10-18T17:08:23.620Z,17.20
2022-10-18T17:09:56.364Z,17.20
2022-10-18T17:11:29.482Z,17.20
2022-10-18T17:13:02.193Z,17.20
2022-10-18T17:14:36.870Z,17.20
2022-10-18T17:16:19.818Z,17.20
2022-10-18T17:17:52.795Z,17.10
2022-10-18T17:19:25.571Z,17.10
2022-10-18T17:21:02.564Z,17.10
2022-10-18T17:22:35.522Z,17.10
2022-10-18T17:24:08.356Z,17.10
2022-10-18T17:25:52.688Z,17.10
2022-10-18T17:27:36.188Z,17.10
2022-10-18T17:29:09.929Z,17.20
2022-10-18T17:30:43.044Z,17.30
2022-10-18T17:32:15.834Z,17.30
2022-10-18T17:33:48.553Z,17.30
2022-10-18T17:35:21.295Z,17.30
2022-10-18T17:36:55.880Z,17.30
2022-10-18T17:38:28.693Z,17.30
2022-10-18T17:40:01.437Z,17.30
2022-10-18T17:41:34.225Z,17.30
2022-10-18T17:43:07.133Z,17.30
2022-10-18T17:44:39.959Z,17.30
2022-10-18T17:46:14.147Z,17.30
2022-10-18T17:47:46.872Z,17.40
2022-10-18T17:49:19.653Z,17.40
2022-10-18T17:50:52.532Z,17.40
2022-10-18T17:52:26.719Z,17.40
2022-10-18T17:53:59.494Z,17.40
2022-10-18T17:55:32.251Z,17.50
2022-10-18T17:57:05.324Z,17.50
2022-10-18T17:58:38.129Z,17.40
2022-10-18T18:00:12.102Z,17.40
2022-10-18T18:01:44.820Z,17.30
2022-10-18T18:03:17.633Z,17.30
2022-10-18T18:04:50.395Z,17.30
2022-10-18T18:06:23.727Z,17.30
2022-10-18T18:08:02.740Z,17.30
2022-10-18T18:09:37.212Z,17.30
2022-10-18T18:11:11.120Z,17.40
2022-10-18T18:12:45.429Z,17.30
2022-10-18T18:14:18.287Z,17.30
2022-10-18T18:15:51.038Z,17.30
2022-10-18T18:17:33.685Z,17.30
2022-10-18T18:19:09.841Z,17.30
2022-10-18T18:20:42.885Z,17.20
2022-10-18T18:22:15.741Z,17.20
2022-10-18T18:23:49.067Z,17.20
2022-10-18T18:25:21.954Z,17.10
2022-10-18T18:26:55.136Z,17.00
2022-10-18T18:28:28.046Z,17.10
2022-10-18T18:30:00.877Z,17.00
2022-10-18T18:31:38.706Z,16.90
2022-10-18T18:33:13.085Z,16.80
2022-10-18T18:34:53.233Z,16.90
2022-10-18T18:36:28.785Z,16.80
2022-10-18T18:38:01.683Z,16.80
2022-10-18T18:39:36.190Z,16.80
2022-10-18T18:41:10.753Z,16.80
2022-10-18T18:42:44.077Z,16.80
2022-10-18T18:44:16.955Z,16.70
2022-10-18T18:45:53.083Z,16.70
2022-10-18T18:47:27.364Z,16.70
2022-10-18T18:49:00.169Z,16.70
2022-10-18T18:50:37.049Z,16.70
2022-10-18T18:52:09.824Z,16.70
2022-10-18T18:53:43.030Z,16.60
2022-10-18T18:55:17.238Z,16.60
2022-10-18T18:56:49.986Z,16.50
2022-10-18T18:58:22.756Z,16.40
2022-10-18T18:59:55.597Z,16.40
2022-10-18T19:01:29.653Z,16.40
2022-10-18T19:03:02.472Z,16.40
2022-10-18T19:04:36.455Z,16.30
2022-10-18T19:06:10.513Z,16.20
2022-10-18T19:07:43.267Z,16.20
2022-10-18T19:09:20.586Z,16.10
2022-10-18T19:10:54.704Z,16.00
2022-10-18T19:12:27.477Z,15.90
2022-10-18T19:14:00.615Z,15.90
2022-10-18T19:15:33.448Z,15.90
2022-10-18T19:17:10.168Z,15.90
2022-10-18T19:18:42.966Z,15.80
2022-10-18T19:20:17.632Z,15.80
2022-10-18T19:21:52.086Z,15.80
2022-10-18T19:24:58.551Z,15.70
2022-10-18T19:26:34.739Z,15.60
2022-10-18T19:28:07.534Z,15.60
2022-10-18T19:29:41.064Z,15.50
2022-10-18T19:31:13.895Z,15.50
2022-10-18T19:32:46.629Z,15.40
2022-10-18T19:34:20.345Z,15.50
2022-10-18T19:35:52.209Z,15.40
2022-10-18T19:37:24.960Z,15.40
2022-10-18T19:38:57.939Z,15.40
2022-10-18T19:40:33.179Z,15.40
2022-10-18T19:42:08.914Z,15.30
2022-10-18T19:43:41.756Z,15.30
2022-10-18T19:45:14.584Z,15.40
2022-10-18T19:46:47.659Z,15.30
2022-10-18T19:48:21.062Z,15.30
2022-10-18T19:49:53.845Z,15.30
2022-10-18T19:51:28.354Z,15.20
2022-10-18T19:53:01.408Z,15.20
2022-10-18T19:54:34.182Z,15.10
2022-10-18T19:56:07.078Z,15.10
2022-10-18T19:57:41.168Z,15.10
2022-10-18T19:59:14.942Z,15.00
2022-10-18T20:00:53.767Z,15.10
2022-10-18T20:02:26.486Z,15.10
2022-10-18T20:03:59.598Z,15.00
2022-10-18T20:05:32.422Z,15.00
2022-10-18T20:07:05.233Z,15.00
2022-10-18T20:08:38.544Z,14.90
2022-10-18T20:10:10.451Z,14.90
2022-10-18T20:11:43.225Z,14.80
2022-10-18T20:13:17.340Z,14.90
2022-10-18T20:14:50.163Z,14.90
2022-10-18T20:16:27.946Z,14.90
2022-10-18T20:18:01.320Z,14.90
2022-10-18T20:19:34.202Z,14.90
2022-10-18T20:21:07.366Z,14.90
2022-10-18T20:22:40.113Z,15.00
2022-10-18T20:24:12.864Z,14.90
2022-10-18T20:25:56.020Z,14.90
2022-10-18T20:27:31.356Z,14.80
2022-10-18T20:29:07.560Z,14.90
2022-10-18T20:30:40.318Z,14.80
2022-10-18T20:32:13.154Z,14.80
2022-10-18T20:33:46.676Z,14.90